Time;durP1;ratioP1;P1;durP2;ratioP2;P2;SDS_P1;SDS_P2;PMS_P1;PMS_P2;Temp;Humidity;BMP_temperature;BMP_pressure;BME280_temperature;BME280_humidity;BME280_pressure;Samples;Min_cycle;Max_cycle;Signal;HPM_P1;HPM_P2
2024/02/17 00:02:19;;;;;;;21.80;13.98;;;;;;;-145.63;54.15;38979.28;5022513;28;20038;-69
2024/02/17 00:04:45;;;;;;;22.15;13.57;;;;;;;-145.63;54.26;38983.19;5020052;28;20041;-67
2024/02/17 00:07:10;;;;;;;21.98;13.23;;;;;;;-145.63;54.47;38991.00;5033480;28;20029;-68
2024/02/17 00:09:36;;;;;;;23.23;14.05;;;;;;;-145.63;54.33;38969.50;5033575;28;20489;-66
2024/02/17 00:12:02;;;;;;;25.65;14.43;;;;;;;-145.63;54.84;38953.84;5016597;28;20125;-68
2024/02/17 00:14:27;;;;;;;25.40;14.25;;;;;;;-145.63;54.76;39004.69;5038865;28;20033;-68
2024/02/17 00:16:53;;;;;;;24.80;14.32;;;;;;;-145.63;54.55;38965.56;5046743;28;20029;-67
2024/02/17 00:19:18;;;;;;;22.83;13.82;;;;;;;-145.63;54.49;39008.59;5053321;28;20060;-68
2024/02/17 00:21:44;;;;;;;22.40;14.27;;;;;;;-145.63;54.07;38985.13;5053220;28;20474;-69
2024/02/17 00:24:09;;;;;;;21.38;13.80;;;;;;;-145.63;54.03;38969.50;5035133;28;20034;-70
2024/02/17 00:26:37;;;;;;;21.23;13.38;;;;;;;-145.63;54.17;38977.31;5032088;28;20033;-69
2024/02/17 00:29:03;;;;;;;20.88;13.00;;;;;;;-145.63;54.11;39012.50;5024774;28;20044;-67
2024/02/17 00:31:28;;;;;;;21.92;13.25;;;;;;;-145.63;54.69;38994.91;5017117;28;20053;-68
2024/02/17 00:33:54;;;;;;;24.10;14.73;;;;;;;-145.63;54.78;38996.88;5033967;28;20041;-68
2024/02/17 00:36:19;;;;;;;24.40;14.40;;;;;;;-145.63;54.46;38994.91;5013803;28;20030;-69
2024/02/17 00:38:45;;;;;;;23.00;14.65;;;;;;;-145.63;54.44;39000.78;5028225;28;20056;-69
2024/02/17 00:41:11;;;;;;;25.92;14.52;;;;;;;-145.63;54.94;38797.41;5043430;28;20146;-67
2024/02/17 00:43:36;;;;;;;22.95;13.77;;;;;;;-145.63;55.34;38971.44;5048293;28;20052;-71
2024/02/17 00:46:03;;;;;;;24.38;14.60;;;;;;;-145.63;55.20;38955.81;5033003;28;20032;-68
2024/02/17 00:48:28;;;;;;;23.27;14.05;;;;;;;-145.63;55.45;38975.34;5013423;28;20034;-69
2024/02/17 00:50:54;;;;;;;22.63;14.43;;;;;;;-145.63;55.20;38985.13;5029101;28;20544;-69
2024/02/17 00:53:20;;;;;;;23.65;14.80;;;;;;;-145.63;54.95;38992.97;5033475;28;20048;-68
2024/02/17 00:55:46;;;;;;;22.50;12.95;;;;;;;-145.63;54.79;38961.66;5026814;28;20502;-70
2024/02/17 00:58:12;;;;;;;24.70;14.15;;;;;;;-145.63;54.66;39002.72;5015001;28;20030;-70
2024/02/17 01:00:37;;;;;;;26.13;13.98;;;;;;;-145.63;54.77;39000.78;5033481;28;20383;-70
2024/02/17 01:03:07;;;;;;;24.38;14.23;;;;;;;-145.63;54.54;38981.22;5016843;28;20029;-71
2024/02/17 01:05:32;;;;;;;23.27;14.32;;;;;;;-145.63;54.76;38983.19;5026680;28;20030;-68
2024/02/17 01:07:58;;;;;;;22.83;13.45;;;;;;;-145.63;54.73;38957.75;5033361;28;20470;-68
2024/02/17 01:10:24;;;;;;;24.35;13.63;;;;;;;-145.63;54.86;38979.28;5029266;28;20041;-69
2024/02/17 01:12:49;;;;;;;21.85;13.82;;;;;;;-145.63;54.90;39006.66;5013349;28;20485;-68
2024/02/17 01:15:15;;;;;;;22.05;14.00;;;;;;;-145.63;54.65;38983.19;5031560;28;20049;-70
2024/02/17 01:17:40;;;;;;;22.45;14.20;;;;;;;-145.63;54.00;38992.97;5019642;28;20036;-69
2024/02/17 01:20:07;;;;;;;26.30;15.13;;;;;;;-145.63;54.55;38992.97;5022625;28;20048;-69
2024/02/17 01:22:34;;;;;;;22.75;14.63;;;;;;;-145.63;54.16;38971.44;5028441;28;20064;-68
2024/02/17 01:24:59;;;;;;;24.42;13.73;;;;;;;-145.63;54.52;38975.34;5013767;28;20478;-70
2024/02/17 01:27:25;;;;;;;25.77;15.13;;;;;;;-145.63;54.19;39008.59;5033061;28;20022;-69
2024/02/17 01:29:50;;;;;;;22.40;13.13;;;;;;;-145.63;54.06;38992.97;5029472;28;20029;-69
2024/02/17 01:32:16;;;;;;;24.90;14.77;;;;;;;-145.63;54.40;38977.31;5022285;28;20388;-68
2024/02/17 01:34:42;;;;;;;26.00;14.15;;;;;;;-145.63;54.51;38973.41;5018678;28;20109;-68
2024/02/17 01:37:07;;;;;;;21.98;13.75;;;;;;;-145.63;54.57;38985.13;5032515;28;20049;-68
2024/02/17 01:39:33;;;;;;;23.88;13.82;;;;;;;-145.63;54.71;39004.69;5013356;28;20103;-69
2024/02/17 01:41:58;;;;;;;24.63;13.52;;;;;;;-145.63;54.43;38998.81;5045990;28;20040;-68
2024/02/17 01:44:24;;;;;;;23.98;14.95;;;;;;;-145.63;54.89;38985.13;5044777;28;20033;-69
2024/02/17 01:46:51;;;;;;;19.50;13.15;;;;;;;-145.63;54.74;38992.97;5029938;28;20113;-69
2024/02/17 01:49:18;;;;;;;22.27;14.10;;;;;;;-145.63;54.49;38981.22;5018563;28;20054;-68
2024/02/17 01:51:44;;;;;;;24.55;14.35;;;;;;;-145.63;54.78;38965.56;5036552;28;20051;-69
2024/02/17 01:54:11;;;;;;;23.20;13.82;;;;;;;-145.63;54.38;39004.69;5036496;28;20021;-68
2024/02/17 01:56:38;;;;;;;24.60;14.02;;;;;;;-145.63;54.31;38983.19;5023077;28;20471;-68
2024/02/17 01:59:03;;;;;;;24.50;13.98;;;;;;;-145.63;54.72;38998.81;5025097;28;20061;-69
2024/02/17 02:01:30;;;;;;;27.75;15.52;;;;;;;-145.63;54.56;39039.88;5033072;28;20092;-69
2024/02/17 02:03:57;;;;;;;25.17;14.73;;;;;;;-145.63;54.25;38996.88;5023205;28;20068;-69
2024/02/17 02:06:24;;;;;;;20.48;14.07;;;;;;;-145.63;54.24;38992.97;5036228;28;20475;-68
2024/02/17 02:08:51;;;;;;;21.38;14.13;;;;;;;-145.63;54.55;38996.88;5022067;28;20375;-69
2024/02/17 02:11:18;;;;;;;29.83;14.38;;;;;;;-145.63;54.79;39004.69;5028249;28;20032;-68
2024/02/17 02:13:44;;;;;;;23.50;14.38;;;;;;;-145.63;54.58;38973.41;5031817;28;20034;-68
2024/02/17 02:16:10;;;;;;;21.80;14.35;;;;;;;-145.63;54.60;38979.28;5018222;28;20040;-70
2024/02/17 02:18:35;;;;;;;24.52;14.95;;;;;;;-145.63;54.82;39002.72;5055999;28;20370;-68
2024/02/17 02:21:03;;;;;;;29.33;15.07;;;;;;;-145.63;54.78;38973.41;5051008;28;20036;-69
2024/02/17 02:23:29;;;;;;;24.08;14.60;;;;;;;-145.63;55.11;38987.09;5040076;28;20037;-67
2024/02/17 02:25:56;;;;;;;22.70;14.85;;;;;;;-145.63;55.01;38947.97;5040654;28;20034;-68
2024/02/17 02:28:22;;;;;;;23.33;14.55;;;;;;;-145.63;54.55;38940.16;5040762;28;20059;-69
2024/02/17 02:30:50;;;;;;;23.52;13.85;;;;;;;-145.63;54.72;38973.41;5017831;28;20038;-68
2024/02/17 02:33:16;;;;;;;22.55;13.80;;;;;;;-145.63;54.97;39022.28;5034263;28;20069;-67
2024/02/17 02:35:42;;;;;;;20.95;14.40;;;;;;;-145.63;54.72;38991.00;5027532;28;20040;-69
2024/02/17 02:38:07;;;;;;;20.95;12.60;;;;;;;-145.63;55.06;38998.81;5044391;28;20033;-69
2024/02/17 02:40:33;;;;;;;24.17;14.73;;;;;;;-145.63;54.79;38989.03;5051712;28;20026;-67
2024/02/17 02:42:59;;;;;;;23.90;13.90;;;;;;;-145.63;54.67;38957.75;5035406;28;20041;-67
2024/02/17 02:45:24;;;;;;;22.13;13.15;;;;;;;-145.63;55.00;38971.44;5017257;28;20109;-68
2024/02/17 02:47:50;;;;;;;23.67;14.88;;;;;;;-145.63;55.13;38994.91;5030472;28;20040;-68
2024/02/17 02:50:16;;;;;;;22.88;13.00;;;;;;;-145.63;55.25;38991.00;5034404;28;20041;-68
2024/02/17 02:52:41;;;;;;;22.63;14.65;;;;;;;-145.63;55.04;38998.81;5035121;28;20037;-67
2024/02/17 02:55:07;;;;;;;22.13;14.35;;;;;;;-145.63;54.84;38969.50;5035532;28;20021;-68
2024/02/17 02:57:33;;;;;;;22.63;14.55;;;;;;;-145.63;55.24;38996.88;5015701;28;20502;-68
2024/02/17 02:59:58;;;;;;;23.73;14.48;;;;;;;-145.63;54.70;38992.97;5046292;28;20021;-68
2024/02/17 03:02:24;;;;;;;23.63;14.38;;;;;;;-145.63;55.37;38969.50;5055291;28;20033;-69
2024/02/17 03:04:52;;;;;;;22.85;14.60;;;;;;;-145.63;55.74;38519.72;5049330;28;20029;-69
2024/02/17 03:07:18;;;;;;;23.80;14.35;;;;;;;-145.63;55.21;39008.59;5033614;28;20034;-68
2024/02/17 03:09:43;;;;;;;20.95;13.70;;;;;;;-145.63;55.36;38985.13;5015708;28;20041;-67
2024/02/17 03:12:09;;;;;;;22.20;14.82;;;;;;;-145.63;55.08;38975.34;5015261;28;20029;-69
2024/02/17 03:14:36;;;;;;;26.58;15.13;;;;;;;-145.63;54.95;39006.66;5029560;28;20652;-68
2024/02/17 03:17:03;;;;;;;25.08;15.20;;;;;;;-145.63;54.80;39000.78;5034700;28;20075;-68
2024/02/17 03:19:29;;;;;;;24.70;15.32;;;;;;;-145.63;54.90;38996.88;5034294;28;20134;-68
2024/02/17 03:21:54;;;;;;;30.70;15.60;;;;;;;-145.63;55.01;38992.97;5034379;28;20049;-68
2024/02/17 03:24:20;;;;;;;23.73;14.35;;;;;;;-145.63;55.07;38971.44;5034465;28;20108;-68
2024/02/17 03:26:46;;;;;;;23.50;14.65;;;;;;;-145.63;55.20;38996.88;5030732;28;20036;-68
2024/02/17 03:29:11;;;;;;;23.60;15.07;;;;;;;-145.63;55.23;39004.69;5033915;28;20032;-68
2024/02/17 03:31:37;;;;;;;25.08;15.15;;;;;;;-145.63;55.50;38989.03;5038302;28;20215;-68
2024/02/17 03:34:05;;;;;;;23.48;14.90;;;;;;;-145.63;55.88;39012.50;5054378;28;20045;-68
2024/02/17 03:36:32;;;;;;;22.95;15.10;;;;;;;-145.63;55.99;38998.81;5034701;28;20037;-69
2024/02/17 03:38:58;;;;;;;24.23;14.75;;;;;;;-145.63;55.93;39016.44;5034063;28;20379;-68
2024/02/17 03:41:24;;;;;;;21.45;14.38;;;;;;;-145.63;56.01;38977.31;5024307;28;20030;-68
2024/02/17 03:43:49;;;;;;;26.40;14.65;;;;;;;-145.63;55.82;38989.03;5020113;28;20083;-68
2024/02/17 03:46:15;;;;;;;22.27;15.07;;;;;;;-145.63;55.75;39020.34;5033834;28;20524;-68
2024/02/17 03:48:41;;;;;;;27.10;15.10;;;;;;;-145.63;55.52;39002.72;5034186;28;20029;-70
2024/02/17 03:51:07;;;;;;;23.83;14.25;;;;;;;-145.63;55.17;39016.44;5033579;28;20517;-69
2024/02/17 03:53:33;;;;;;;24.67;15.40;;;;;;;-145.63;55.43;39000.78;5034251;28;20037;-69
2024/02/17 03:55:59;;;;;;;22.65;15.63;;;;;;;-145.63;56.11;38963.63;5027214;28;20332;-69
2024/02/17 03:58:24;;;;;;;27.60;16.15;;;;;;;-145.63;55.92;38991.00;5027776;28;20037;-68
2024/02/17 04:00:50;;;;;;;25.05;15.05;;;;;;;-145.63;55.83;39006.66;5013973;28;20030;-68
2024/02/17 04:03:16;;;;;;;24.30;15.05;;;;;;;-145.63;55.67;38992.97;5030923;28;20045;-69
2024/02/17 04:05:41;;;;;;;21.88;14.00;;;;;;;-145.63;56.16;38977.31;5033110;28;20034;-69
2024/02/17 04:08:07;;;;;;;22.73;14.38;;;;;;;-145.63;56.38;38992.97;5033961;28;20029;-69
2024/02/17 04:10:32;;;;;;;27.05;14.18;;;;;;;-145.63;56.01;38996.88;5030775;28;20026;-68
2024/02/17 04:12:58;;;;;;;23.27;14.82;;;;;;;-145.63;56.17;38992.97;5013512;28;20103;-68
2024/02/17 04:15:23;;;;;;;33.55;15.80;;;;;;;-145.63;56.38;38973.41;5031755;28;20394;-69
2024/02/17 04:17:49;;;;;;;24.33;14.88;;;;;;;-145.63;55.95;38973.41;5031622;28;20029;-71
2024/02/17 04:20:15;;;;;;;22.70;14.55;;;;;;;-145.63;56.38;38991.00;5033731;28;20035;-69
2024/02/17 04:22:40;;;;;;;26.45;14.63;;;;;;;-145.63;55.94;38998.81;5034035;28;20382;-69
2024/02/17 04:25:06;;;;;;;23.88;15.05;;;;;;;-145.63;56.02;38992.97;5033379;28;20033;-68
2024/02/17 04:27:32;;;;;;;26.88;15.80;;;;;;;-145.63;55.99;39026.19;5032741;28;20031;-70
2024/02/17 04:29:58;;;;;;;26.80;15.43;;;;;;;-145.63;55.79;39028.16;5018905;28;20109;-70
2024/02/17 04:32:24;;;;;;;25.63;15.10;;;;;;;-145.63;55.65;39016.44;5022891;28;20545;-68
2024/02/17 04:34:49;;;;;;;29.10;15.50;;;;;;;-145.63;55.77;38989.03;5028272;28;20046;-68
2024/02/17 04:37:15;;;;;;;26.75;15.05;;;;;;;-145.63;55.99;38994.91;5028304;28;20068;-67
2024/02/17 04:39:41;;;;;;;27.42;15.70;;;;;;;-145.63;56.06;39016.44;5053124;28;20082;-66
2024/02/17 04:42:06;;;;;;;24.30;14.65;;;;;;;-145.63;55.79;38991.00;5038196;28;20120;-67
2024/02/17 04:44:32;;;;;;;23.80;15.05;;;;;;;-145.63;56.02;39014.47;5022805;28;20058;-69
2024/02/17 04:46:58;;;;;;;26.45;15.55;;;;;;;-145.63;55.84;39012.50;5017414;28;20072;-68
2024/02/17 04:49:23;;;;;;;24.48;15.20;;;;;;;-145.63;55.76;38991.00;5033400;28;20060;-68
2024/02/17 04:51:49;;;;;;;26.08;15.68;;;;;;;-145.63;55.76;38985.13;5033331;28;20064;-67
2024/02/17 04:54:15;;;;;;;27.17;15.98;;;;;;;-145.63;55.60;39014.47;5032966;28;20033;-70
2024/02/17 04:56:40;;;;;;;26.27;15.63;;;;;;;-145.63;55.60;39004.69;5020978;28;20034;-66
2024/02/17 04:59:06;;;;;;;22.83;15.10;;;;;;;-145.63;55.74;39043.81;5020221;28;20041;-67
2024/02/17 05:01:31;;;;;;;29.30;15.85;;;;;;;-145.63;55.55;39016.44;5032405;28;20033;-69
2024/02/17 05:03:57;;;;;;;26.55;16.20;;;;;;;-145.63;55.97;39000.78;5033036;28;20030;-68
2024/02/17 05:06:22;;;;;;;25.08;15.55;;;;;;;-145.63;56.22;39028.16;5033067;28;20037;-67
2024/02/17 05:08:48;;;;;;;26.55;15.70;;;;;;;-145.63;55.88;39004.69;5033072;28;20048;-69
2024/02/17 05:11:15;;;;;;;26.50;15.40;;;;;;;-145.63;55.72;39002.72;5034010;28;20800;-68
2024/02/17 05:13:41;;;;;;;29.05;16.45;;;;;;;-145.63;55.51;38983.19;5049879;28;20109;-68
2024/02/17 05:16:07;;;;;;;27.65;15.30;;;;;;;-145.63;55.66;39006.66;5033451;28;20036;-66
2024/02/17 05:18:33;;;;;;;25.52;15.68;;;;;;;-145.63;55.97;38992.97;5036735;28;20029;-68
2024/02/17 05:20:59;;;;;;;24.65;14.73;;;;;;;-145.63;55.64;38969.50;5027254;28;20033;-69
2024/02/17 05:23:25;;;;;;;28.50;15.93;;;;;;;-145.63;55.29;38983.19;5036691;28;20040;-67
2024/02/17 05:25:51;;;;;;;27.50;16.10;;;;;;;-145.63;55.51;38963.63;5035926;28;20033;-67
2024/02/17 05:28:17;;;;;;;27.38;15.95;;;;;;;-145.63;55.78;38969.50;5056054;28;20704;-67
2024/02/17 05:30:42;;;;;;;29.80;16.25;;;;;;;-145.63;55.65;39000.78;5017303;28;20060;-66
2024/02/17 05:33:11;;;;;;;28.85;16.25;;;;;;;-145.63;55.78;38926.47;5035957;28;20072;-69
2024/02/17 05:35:37;;;;;;;28.60;16.70;;;;;;;-145.63;56.09;38965.56;5027995;28;20034;-68
2024/02/17 05:38:02;;;;;;;27.48;16.38;;;;;;;-145.63;55.77;38975.34;5048320;28;20072;-67
2024/02/17 05:40:28;;;;;;;25.20;15.52;;;;;;;-145.63;55.68;38989.03;5035010;28;20747;-66
2024/02/17 05:42:53;;;;;;;22.80;15.07;;;;;;;-145.63;56.34;38963.63;5049253;28;20305;-68
2024/02/17 05:45:19;;;;;;;27.45;15.40;;;;;;;-145.63;55.91;39014.47;5037970;28;20061;-68
2024/02/17 05:47:45;;;;;;;27.20;15.75;;;;;;;-145.63;55.95;38989.03;5036302;28;20453;-70
2024/02/17 05:50:10;;;;;;;27.90;16.38;;;;;;;-145.63;55.72;38987.09;5034898;28;20312;-67
2024/02/17 05:52:38;;;;;;;24.42;16.30;;;;;;;-145.63;56.03;38887.34;5047668;28;20090;-68
2024/02/17 05:55:06;;;;;;;25.35;15.75;;;;;;;-145.63;56.02;38963.63;5036424;28;20612;-68
2024/02/17 05:57:31;;;;;;;24.77;15.23;;;;;;;-145.63;56.07;38961.66;5028988;28;20053;-68
2024/02/17 05:59:57;;;;;;;25.50;16.15;;;;;;;-145.63;55.91;39016.44;5035626;28;20072;-68
2024/02/17 06:02:22;;;;;;;27.13;16.98;;;;;;;-145.63;55.82;38947.97;5038050;28;20029;-68
2024/02/17 06:04:48;;;;;;;23.50;15.02;;;;;;;-145.63;55.77;38944.06;5035916;28;20056;-68
2024/02/17 06:07:15;;;;;;;28.27;15.55;;;;;;;-145.63;55.70;38987.09;5045378;28;20043;-68
2024/02/17 06:09:41;;;;;;;26.92;15.32;;;;;;;-145.63;55.63;38973.41;5036320;28;20091;-69
2024/02/17 06:12:07;;;;;;;28.33;16.05;;;;;;;-145.63;55.07;39008.59;5029658;28;20026;-69
2024/02/17 06:14:32;;;;;;;26.90;16.30;;;;;;;-145.63;55.26;38994.91;5035783;28;20442;-69
2024/02/17 06:17:02;;;;;;;27.45;16.38;;;;;;;-145.63;55.23;38992.97;5035354;28;20033;-69
2024/02/17 06:22:12;;;;;;;27.42;16.05;;;;;;;-145.63;55.50;38983.19;5038769;28;20032;-69
2024/02/17 06:24:38;;;;;;;25.55;15.98;;;;;;;-145.63;55.30;38977.31;5036885;28;20367;-69
2024/02/17 06:27:04;;;;;;;25.45;15.65;;;;;;;-145.63;55.23;38973.41;5035716;28;20034;-68
2024/02/17 06:29:30;;;;;;;28.15;16.13;;;;;;;-145.63;55.05;38981.22;5034813;28;20120;-68
2024/02/17 06:31:55;;;;;;;26.40;15.65;;;;;;;-145.63;54.68;38961.66;5035620;28;20049;-68
2024/02/17 06:34:21;;;;;;;31.33;16.85;;;;;;;-145.63;54.52;38973.41;5034610;28;20038;-69
2024/02/17 06:36:46;;;;;;;28.67;16.98;;;;;;;-145.63;54.84;38992.97;5030400;28;20025;-68
2024/02/17 06:39:12;;;;;;;29.58;17.42;;;;;;;-145.63;54.91;38965.56;5039764;28;20095;-69
2024/02/17 06:41:38;;;;;;;28.33;17.83;;;;;;;-145.63;54.86;38992.97;5035779;28;20414;-68
2024/02/17 06:44:03;;;;;;;26.13;15.98;;;;;;;-145.63;54.59;39000.78;5035759;28;20352;-68
2024/02/17 06:46:30;;;;;;;25.65;16.38;;;;;;;-145.63;54.77;38996.88;5035119;28;20033;-68
2024/02/17 06:48:55;;;;;;;30.25;16.88;;;;;;;-145.63;54.84;39014.47;5035416;28;20037;-68
2024/02/17 06:51:22;;;;;;;27.80;16.20;;;;;;;-145.63;54.40;39026.19;5035259;28;20067;-68
2024/02/17 06:53:48;;;;;;;32.22;15.55;;;;;;;-145.63;54.62;39010.56;5034719;28;20113;-68
2024/02/17 06:56:14;;;;;;;28.48;16.08;;;;;;;-145.63;54.95;38973.41;5026801;28;20080;-69
2024/02/17 06:58:41;;;;;;;30.90;16.98;;;;;;;-145.63;54.62;38969.50;5034313;28;20405;-68
2024/02/17 07:01:07;;;;;;;28.35;16.90;;;;;;;-145.63;54.81;38983.19;5034589;28;20466;-69
2024/02/17 07:03:32;;;;;;;27.55;17.20;;;;;;;-145.63;54.49;38975.34;5052138;28;20090;-68
2024/02/17 07:05:58;;;;;;;26.77;16.05;;;;;;;-145.63;54.50;38959.72;5041613;28;20033;-68
2024/02/17 07:08:24;;;;;;;24.27;16.75;;;;;;;-145.63;54.29;38992.97;5042407;28;20133;-69
2024/02/17 07:10:49;;;;;;;30.95;18.05;;;;;;;-145.63;54.26;38967.53;5034809;28;20444;-69
2024/02/17 07:13:15;;;;;;;28.17;17.17;;;;;;;-145.63;53.82;38967.53;5034461;28;20037;-69
2024/02/17 07:15:40;;;;;;;27.00;17.35;;;;;;;-145.63;53.97;38977.31;5033992;28;20467;-70
2024/02/17 07:18:06;;;;;;;28.77;17.00;;;;;;;-145.63;53.86;38996.88;5032867;28;20439;-70
2024/02/17 07:20:32;;;;;;;29.23;16.90;;;;;;;-145.63;53.76;39008.59;5034614;28;20034;-71
2024/02/17 07:22:59;;;;;;;28.52;17.27;;;;;;;-145.63;53.73;39000.78;5041246;28;20069;-69
2024/02/17 07:25:27;;;;;;;29.38;17.30;;;;;;;-145.63;53.78;38991.00;5034350;28;20120;-69
2024/02/17 07:27:56;;;;;;;27.63;17.17;;;;;;;-145.63;53.92;39000.78;5044819;28;20029;-70
2024/02/17 07:30:23;;;;;;;29.20;17.90;;;;;;;-145.63;54.07;39004.69;5038177;28;20116;-67
2024/02/17 07:32:49;;;;;;;34.60;17.17;;;;;;;-145.63;54.13;38977.31;5035275;28;20049;-69
2024/02/17 07:35:14;;;;;;;26.55;17.08;;;;;;;-145.63;54.11;38987.09;5034095;28;20136;-67
2024/02/17 07:37:40;;;;;;;29.45;16.85;;;;;;;-145.63;53.52;38967.53;5040155;28;20029;-69
2024/02/17 07:40:08;;;;;;;31.55;17.00;;;;;;;-145.63;53.94;39018.38;5033147;28;20033;-70
2024/02/17 07:42:36;;;;;;;28.90;17.75;;;;;;;-145.63;54.32;38983.19;5023553;28;20463;-70
2024/02/17 07:45:03;;;;;;;32.40;17.38;;;;;;;-145.63;53.77;38996.88;5046730;28;20045;-69
2024/02/17 07:47:32;;;;;;;31.75;17.70;;;;;;;-145.63;54.06;38994.91;5045217;28;20434;-71
2024/02/17 07:49:58;;;;;;;36.83;19.42;;;;;;;-145.63;53.79;38983.19;5034132;28;20451;-69
2024/02/17 07:52:23;;;;;;;29.90;17.60;;;;;;;-145.63;53.43;39020.34;5039413;28;20025;-69
2024/02/17 07:54:49;;;;;;;30.25;17.13;;;;;;;-145.63;53.48;38996.88;5034610;28;20037;-68
2024/02/17 07:57:14;;;;;;;30.88;17.42;;;;;;;-145.63;53.35;39026.19;5022818;28;20112;-68
2024/02/17 07:59:40;;;;;;;29.67;17.20;;;;;;;-145.63;53.15;39010.56;5032568;28;20091;-68
2024/02/17 08:02:06;;;;;;;26.05;15.00;;;;;;;-145.63;53.06;38998.81;5033191;28;20518;-68
2024/02/17 08:04:31;;;;;;;25.02;15.93;;;;;;;-145.63;52.98;39030.13;5034498;28;20033;-67
2024/02/17 08:06:57;;;;;;;29.88;15.85;;;;;;;-145.63;52.73;39006.66;5033580;28;20031;-67
2024/02/17 08:09:22;;;;;;;30.25;16.35;;;;;;;-145.63;53.26;39002.72;5033946;28;20108;-69
2024/02/17 08:11:50;;;;;;;24.60;15.90;;;;;;;-145.63;53.23;39002.72;5033616;28;20025;-71
2024/02/17 08:14:16;;;;;;;26.70;15.77;;;;;;;-145.63;53.04;39024.25;5033227;28;20033;-70
2024/02/17 08:16:42;;;;;;;25.73;15.32;;;;;;;-145.63;53.06;39016.44;5031552;28;20067;-70
2024/02/17 08:19:07;;;;;;;27.20;16.25;;;;;;;-145.63;52.66;39016.44;5031832;28;20431;-71
2024/02/17 08:21:33;;;;;;;30.65;16.50;;;;;;;-145.63;52.98;39047.72;5024775;28;20025;-70
2024/02/17 08:23:59;;;;;;;29.40;16.55;;;;;;;-145.63;52.53;39016.44;5021452;28;20042;-70
2024/02/17 08:26:27;;;;;;;25.73;14.38;;;;;;;-145.63;52.40;39055.53;5023352;28;20045;-70
2024/02/17 08:28:52;;;;;;;25.20;15.57;;;;;;;-145.63;52.61;39012.50;5045414;28;20781;-69
2024/02/17 08:31:18;;;;;;;25.52;15.40;;;;;;;-145.63;51.68;39032.06;5033335;28;20041;-68
2024/02/17 08:33:44;;;;;;;24.95;14.90;;;;;;;-145.63;51.79;39035.97;5026381;28;20099;-69
2024/02/17 08:36:09;;;;;;;28.10;15.18;;;;;;;-145.63;52.21;39024.25;5019156;28;20520;-69
2024/02/17 08:38:35;;;;;;;24.33;14.60;;;;;;;-145.63;51.86;39043.81;5043141;28;20037;-69
2024/02/17 08:41:04;;;;;;;22.75;13.70;;;;;;;-145.63;51.66;39006.66;5034104;28;20069;-69
2024/02/17 08:43:29;;;;;;;22.10;13.85;;;;;;;-145.63;51.63;39063.34;5029866;28;20414;-67
2024/02/17 08:45:56;;;;;;;20.40;13.10;;;;;;;-145.63;51.68;39039.88;5019181;28;20038;-67
2024/02/17 08:48:22;;;;;;;27.25;13.75;;;;;;;-145.63;51.58;39008.59;5028346;28;20052;-68
2024/02/17 08:50:48;;;;;;;23.60;14.55;;;;;;;-145.63;51.50;39034.03;5036916;28;20033;-68
2024/02/17 08:53:14;;;;;;;22.80;13.35;;;;;;;-145.63;51.34;39039.88;5024383;28;20033;-68
2024/02/17 08:55:40;;;;;;;25.08;12.98;;;;;;;-145.63;51.08;39067.28;5026497;28;20041;-67
2024/02/17 08:58:05;;;;;;;21.45;12.88;;;;;;;-145.63;50.69;39061.41;5033625;28;20033;-66
2024/02/17 09:00:35;;;;;;;22.00;13.10;;;;;;;-145.63;50.45;39096.59;5035410;28;20487;-67
2024/02/17 09:03:01;;;;;;;21.17;13.13;;;;;;;-145.63;50.93;39032.06;5030042;28;20371;-67
2024/02/17 09:05:26;;;;;;;23.15;13.85;;;;;;;-145.63;50.80;39049.66;5032245;28;20036;-65
2024/02/17 09:07:52;;;;;;;18.67;12.68;;;;;;;-145.63;50.11;38942.13;5033363;28;20045;-66
2024/02/17 09:10:17;;;;;;;23.20;12.18;;;;;;;-145.63;49.67;38944.06;5032461;28;20140;-67
2024/02/17 09:12:44;;;;;;;21.80;12.55;;;;;;;-145.63;49.02;39020.34;5032158;28;20033;-66
2024/02/17 09:15:10;;;;;;;24.80;13.38;;;;;;;-145.63;49.06;38991.00;5031604;28;20079;-67
2024/02/17 09:17:36;;;;;;;17.77;12.27;;;;;;;-145.63;48.36;39018.38;5027219;28;20033;-70
2024/02/17 09:20:04;;;;;;;21.35;12.00;;;;;;;-145.63;48.27;39035.97;5033579;28;20037;-69
2024/02/17 09:22:30;;;;;;;18.08;11.80;;;;;;;-145.63;47.85;39002.72;5032839;28;20025;-66
2024/02/17 09:24:56;;;;;;;19.75;11.23;;;;;;;-145.63;47.50;39012.50;5032571;28;20040;-64
2024/02/17 09:27:22;;;;;;;16.08;10.57;;;;;;;-145.63;47.71;38998.81;5032916;28;20033;-65
2024/02/17 09:29:47;;;;;;;22.95;12.20;;;;;;;-145.63;47.17;39006.66;5039650;28;20072;-68
2024/02/17 09:32:14;;;;;;;13.15;10.35;;;;;;;-145.63;46.54;38992.97;5025936;28;20113;-67
2024/02/17 09:34:40;;;;;;;17.35;11.27;;;;;;;-145.63;46.93;39006.66;5029774;28;20041;-64
2024/02/17 09:37:08;;;;;;;16.45;10.70;;;;;;;-145.63;47.58;39006.66;5025647;28;20034;-67
2024/02/17 09:39:35;;;;;;;20.70;12.13;;;;;;;-145.63;46.93;39026.19;5029439;28;20481;-65
2024/02/17 09:42:01;;;;;;;17.73;10.55;;;;;;;-145.63;47.21;39030.13;5030854;28;20034;-66
2024/02/17 09:44:26;;;;;;;16.15;10.82;;;;;;;-145.63;47.44;39075.09;5029943;28;21455;-66
2024/02/17 09:46:53;;;;;;;19.83;10.85;;;;;;;-145.63;49.01;39026.19;5031130;28;20025;-66
2024/02/17 09:49:24;;;;;;;22.02;10.50;;;;;;;-145.63;47.77;39133.75;5032023;28;20061;-65
2024/02/17 09:51:51;;;;;;;15.10;11.40;;;;;;;-145.63;48.36;39030.13;5031815;28;20419;-67
2024/02/17 09:54:20;;;;;;;15.77;12.00;;;;;;;-145.63;47.91;39120.06;5044151;28;20036;-66
2024/02/17 09:56:48;;;;;;;21.52;12.15;;;;;;;-145.63;48.75;39123.97;5042237;28;20033;-66
2024/02/17 09:59:14;;;;;;;18.05;10.88;;;;;;;-145.63;49.16;39108.34;5031926;28;20063;-65
2024/02/17 10:01:39;;;;;;;19.95;12.05;;;;;;;-145.63;49.92;39110.28;4999825;28;20046;-68
2024/02/17 10:04:06;;;;;;;21.50;11.10;;;;;;;-145.63;49.30;39129.84;5006492;28;20092;-67
2024/02/17 10:06:32;;;;;;;17.27;10.80;;;;;;;-145.63;49.08;39114.22;5015649;28;20048;-68
2024/02/17 10:08:58;;;;;;;19.15;11.30;;;;;;;-145.63;49.09;39071.19;5014817;28;20030;-70
2024/02/17 10:11:24;;;;;;;18.23;11.55;;;;;;;-145.63;49.65;39055.53;5015723;28;20058;-66
2024/02/17 10:14:01;;;;;;;16.67;10.90;;;;;;;-145.63;49.12;39120.06;5013278;28;20025;-66
2024/02/17 10:16:32;;;;;;;16.58;11.15;;;;;;;-145.63;49.34;39096.59;5004617;28;20030;-67
2024/02/17 10:18:59;;;;;;;16.92;10.82;;;;;;;-145.63;49.02;39143.53;5014200;28;20109;-66
2024/02/17 10:21:25;;;;;;;18.10;11.15;;;;;;;-145.63;49.24;39084.88;5015107;28;20037;-67
2024/02/17 10:23:51;;;;;;;18.77;11.68;;;;;;;-145.63;50.11;39116.16;5015592;28;20081;-66
2024/02/17 10:26:17;;;;;;;17.58;11.38;;;;;;;-145.63;49.42;39153.31;5014825;28;20112;-65
2024/02/17 10:28:52;;;;;;;19.10;11.18;;;;;;;-145.63;48.94;39118.13;5013293;28;20105;-66
2024/02/17 10:31:21;;;;;;;19.33;11.60;;;;;;;-145.63;49.17;39147.44;5012064;28;20125;-67
2024/02/17 10:33:48;;;;;;;17.55;11.27;;;;;;;-145.63;49.47;39125.94;5013085;28;20077;-66
2024/02/17 10:36:22;;;;;;;17.33;11.43;;;;;;;-145.63;49.39;39133.75;5014875;28;20061;-65
2024/02/17 10:38:48;;;;;;;20.92;11.55;;;;;;;-145.63;49.27;39125.94;5012695;28;20478;-66
2024/02/17 10:41:14;;;;;;;17.60;10.55;;;;;;;-145.63;49.56;39123.97;5014659;28;20829;-66
2024/02/17 10:43:44;;;;;;;16.05;11.05;;;;;;;-145.63;49.99;39094.66;5011272;28;20105;-66
2024/02/17 10:46:18;;;;;;;20.25;10.45;;;;;;;-145.63;49.63;39086.81;5012261;28;20037;-65
2024/02/17 10:48:50;;;;;;;19.48;10.85;;;;;;;-145.63;48.29;39125.94;5015563;28;20124;-64
2024/02/17 10:51:15;;;;;;;;;;;;;;;-145.63;48.84;39123.97;5015392;28;20164;-66
2024/02/17 10:53:48;;;;;;;19.05;10.98;;;;;;;-145.63;49.13;39118.13;5012324;28;20362;-68
2024/02/17 10:56:21;;;;;;;16.60;10.45;;;;;;;-145.63;48.43;38654.66;5009337;28;20056;-68
2024/02/17 10:58:47;;;;;;;16.42;10.48;;;;;;;-145.63;49.06;39145.50;5000747;28;20029;-66
2024/02/17 11:01:14;;;;;;;20.88;10.63;;;;;;;-145.63;49.14;39145.50;5014680;28;20034;-65